Time;durP1;ratioP1;P1;durP2;ratioP2;P2;SDS_P1;SDS_P2;PMS_P1;PMS_P2;Temp;Humidity;BMP_temperature;BMP_pressure;BME280_temperature;BME280_humidity;BME280_pressure;Samples;Min_cycle;Max_cycle;Signal;HPM_P1;HPM_P2
2022/03/01 00:00:19;;;;;;;7.20;4.05;;;;;;;0.10;55.90;96884.19;10277875;28;96925;-71
2022/03/01 00:05:22;;;;;;;7.10;4.70;;;;;;;0.00;55.88;96881.19;10271508;28;97272;-72
2022/03/01 00:10:26;;;;;;;7.68;4.72;;;;;;;-0.13;56.14;96885.19;10279640;28;97247;-72
2022/03/01 00:15:30;;;;;;;7.82;4.55;;;;;;;-0.21;56.99;96879.56;10270117;28;98022;-71
2022/03/01 00:20:33;;;;;;;7.80;4.85;;;;;;;-0.23;56.67;96884.75;10278649;28;97137;-71
2022/03/01 00:25:36;;;;;;;10.13;4.50;;;;;;;-0.29;56.98;96873.91;10281917;28;98763;-71
2022/03/01 00:30:40;;;;;;;6.82;4.53;;;;;;;-0.28;57.13;96889.25;10286214;28;97166;-72
2022/03/01 00:35:44;;;;;;;5.93;4.03;;;;;;;-0.33;56.69;96894.56;10279995;28;97206;-72
2022/03/01 00:40:46;;;;;;;7.55;4.88;;;;;;;-0.41;56.04;96888.91;10274886;28;97092;-72
2022/03/01 00:45:52;;;;;;;11.02;6.60;;;;;;;-0.47;56.75;96883.22;10293241;28;97134;-72
2022/03/01 00:50:55;;;;;;;8.95;5.28;;;;;;;-0.58;57.04;96891.34;10286341;28;96793;-71
2022/03/01 00:55:58;;;;;;;9.82;5.35;;;;;;;-0.63;56.86;96889.00;10275881;28;96831;-72
2022/03/01 01:01:03;;;;;;;9.45;5.60;;;;;;;-0.69;57.34;96893.53;10295675;28;96742;-72
2022/03/01 01:06:06;;;;;;;13.50;7.60;;;;;;;-0.77;57.51;96902.38;10280014;28;97416;-72
2022/03/01 01:11:09;;;;;;;11.38;6.07;;;;;;;-0.88;58.06;96898.56;10274710;28;97011;-71
2022/03/01 01:16:13;;;;;;;10.15;6.15;;;;;;;-0.87;58.09;96906.22;10285858;28;96987;-71
2022/03/01 01:21:16;;;;;;;9.45;5.53;;;;;;;-0.88;58.99;96898.56;10261012;28;97242;-72
2022/03/01 01:26:19;;;;;;;10.43;5.35;;;;;;;-0.94;58.31;96910.75;10289195;28;96982;-72
2022/03/01 01:31:23;;;;;;;8.30;4.80;;;;;;;-0.99;57.67;96899.00;10290084;28;96762;-71
2022/03/01 01:36:26;;;;;;;8.75;4.90;;;;;;;-1.05;59.01;96901.81;10273875;28;96900;-72
2022/03/01 01:41:30;;;;;;;8.38;5.00;;;;;;;-1.12;58.75;96908.91;10289441;28;98801;-72
2022/03/01 01:46:35;;;;;;;9.00;5.78;;;;;;;-1.11;59.70;96908.84;10282190;28;96960;-71
2022/03/01 01:51:38;;;;;;;9.80;5.47;;;;;;;-1.12;60.14;96907.19;10265192;28;97066;-72
2022/03/01 01:56:41;;;;;;;11.23;5.93;;;;;;;-1.20;59.10;96901.50;10269863;28;98596;-72
2022/03/01 02:01:45;;;;;;;8.80;5.45;;;;;;;-1.34;58.92;96904.59;10286083;28;96913;-72
2022/03/01 02:06:52;;;;;;;9.83;5.70;;;;;;;-1.43;60.27;96911.78;10289353;28;97903;-72
2022/03/01 02:11:55;;;;;;;8.45;5.93;;;;;;;-1.55;60.63;96906.25;10274600;28;96980;-71
2022/03/01 02:17:01;;;;;;;10.70;6.13;;;;;;;-1.59;59.95;96908.97;10280252;28;96916;-72
2022/03/01 02:22:06;;;;;;;10.55;5.75;;;;;;;-1.60;61.05;96905.59;10279551;28;98216;-71
2022/03/01 02:27:09;;;;;;;8.80;6.10;;;;;;;-1.59;59.66;96916.66;10282950;28;97035;-71
2022/03/01 02:32:12;;;;;;;11.20;6.55;;;;;;;-1.67;61.29;96919.53;10273855;28;97303;-71
2022/03/01 02:37:16;;;;;;;11.15;6.97;;;;;;;-1.62;60.49;96916.75;10275967;28;97578;-71
2022/03/01 02:42:20;;;;;;;9.65;6.20;;;;;;;-1.55;60.38;96915.66;10280405;28;97037;-72
2022/03/01 02:47:22;;;;;;;7.40;5.72;;;;;;;-1.67;60.99;96914.41;10281212;28;97481;-72
2022/03/01 02:52:27;;;;;;;10.25;6.10;;;;;;;-1.79;60.69;96917.41;10275041;28;98803;-72
2022/03/01 02:57:30;;;;;;;9.75;6.10;;;;;;;-1.80;60.15;96914.00;10275745;28;97759;-71
2022/03/01 03:02:33;;;;;;;10.35;5.68;;;;;;;-1.82;60.45;96914.94;10278777;28;98494;-71
2022/03/01 03:07:37;;;;;;;11.77;5.72;;;;;;;-1.89;61.92;96920.28;10273200;28;98516;-71
2022/03/01 03:12:41;;;;;;;10.40;6.87;;;;;;;-1.96;62.19;96923.94;10278688;28;98810;-72
2022/03/01 03:17:44;;;;;;;9.35;5.70;;;;;;;-1.90;62.21;96928.00;10276925;28;98733;-72
2022/03/01 03:22:48;;;;;;;9.82;6.70;;;;;;;-1.92;62.20;96924.66;10272774;28;98789;-71
2022/03/01 03:27:51;;;;;;;10.50;6.70;;;;;;;-2.05;62.81;96914.88;10271901;28;97020;-72
2022/03/01 03:32:54;;;;;;;11.30;6.13;;;;;;;-2.10;61.85;96926.16;10287275;28;97497;-71
2022/03/01 03:37:58;;;;;;;9.13;6.38;;;;;;;-2.25;63.07;96912.97;10264025;28;96831;-71
2022/03/01 03:43:01;;;;;;;11.45;6.10;;;;;;;-2.31;63.00;96920.88;10289005;28;97048;-72
2022/03/01 03:48:05;;;;;;;8.80;5.57;;;;;;;-2.33;63.46;96919.25;10283333;28;97397;-71
2022/03/01 03:53:09;;;;;;;11.23;7.00;;;;;;;-2.26;62.73;96921.56;10269523;28;100765;-72
2022/03/01 03:58:12;;;;;;;11.90;6.68;;;;;;;-2.27;62.81;96926.75;10271297;28;96989;-71
2022/03/01 04:03:15;;;;;;;10.95;6.40;;;;;;;-2.29;62.53;96931.06;10305807;28;98446;-71
2022/03/01 04:08:19;;;;;;;11.77;6.75;;;;;;;-2.33;63.24;96924.38;10294857;28;97089;-72
2022/03/01 04:13:22;;;;;;;10.20;6.47;;;;;;;-2.39;63.42;96933.09;10293710;28;96775;-71
2022/03/01 04:18:26;;;;;;;13.43;7.35;;;;;;;-2.46;64.73;96929.06;10294422;28;96983;-72
2022/03/01 04:23:30;;;;;;;11.88;8.20;;;;;;;-2.35;64.80;96931.28;10289463;28;97994;-71
2022/03/01 04:28:33;;;;;;;12.00;6.93;;;;;;;-2.35;64.35;96927.00;10283465;28;97072;-71
2022/03/01 04:33:36;;;;;;;14.10;7.75;;;;;;;-2.26;64.39;96931.81;10291879;28;97813;-71
2022/03/01 04:38:43;;;;;;;15.63;7.68;;;;;;;-2.24;64.34;96935.16;10278259;28;96786;-71
2022/03/01 04:43:46;;;;;;;9.27;6.00;;;;;;;-2.16;63.58;96937.47;10286808;28;96998;-72
2022/03/01 04:48:49;;;;;;;9.40;5.63;;;;;;;-2.16;64.30;96936.59;10285670;28;96935;-71
2022/03/01 04:53:53;;;;;;;12.13;6.43;;;;;;;-2.14;63.26;96938.25;10261632;28;96963;-71
2022/03/01 04:58:57;;;;;;;11.37;6.47;;;;;;;-2.14;63.60;96932.25;10284185;28;98328;-71
2022/03/01 05:04:00;;;;;;;8.93;5.38;;;;;;;-2.18;63.74;96938.38;10290267;28;96972;-71
2022/03/01 05:09:04;;;;;;;9.77;5.68;;;;;;;-2.22;62.81;96943.59;10286158;28;96906;-71
2022/03/01 05:14:08;;;;;;;9.32;6.20;;;;;;;-2.25;62.95;96948.81;10269182;28;98033;-71
2022/03/01 05:19:11;;;;;;;10.68;6.28;;;;;;;-2.43;62.83;96950.28;10290787;28;96959;-71
2022/03/01 05:24:15;;;;;;;9.63;6.05;;;;;;;-2.57;63.23;96946.53;10292250;28;97613;-71
2022/03/01 05:29:19;;;;;;;10.57;6.68;;;;;;;-2.54;62.94;96954.06;10286869;28;96942;-71
2022/03/01 05:34:24;;;;;;;;;;;;;;;-2.56;63.53;96945.63;10273024;28;97523;-71
2022/03/01 05:39:28;;;;;;;12.35;7.18;;;;;;;-2.61;62.65;96949.16;10282690;28;98623;-71
2022/03/01 05:44:31;;;;;;;14.13;7.25;;;;;;;-2.66;63.54;96942.53;10269696;28;97196;-72
2022/03/01 05:49:34;;;;;;;11.98;7.05;;;;;;;-2.65;63.41;96939.06;10274273;28;96961;-71
2022/03/01 05:54:39;;;;;;;9.63;5.97;;;;;;;-2.72;63.67;96933.31;10288725;28;96951;-71
2022/03/01 05:59:42;;;;;;;11.18;6.03;;;;;;;-2.82;64.36;96948.13;10287266;28;97534;-72
2022/03/01 06:04:45;;;;;;;10.88;6.20;;;;;;;-2.89;63.20;96940.69;10286573;28;103609;-71
2022/03/01 06:09:50;;;;;;;10.73;6.18;;;;;;;-2.92;62.97;96951.88;10286396;28;98917;-71
2022/03/01 06:14:53;;;;;;;12.82;7.32;;;;;;;-2.90;64.48;96960.31;10292781;28;100140;-71
2022/03/01 06:19:57;;;;;;;10.90;6.93;;;;;;;-2.90;64.35;96964.59;10282720;28;97598;-71
2022/03/01 06:25:02;;;;;;;10.47;6.43;;;;;;;-2.84;64.67;96964.41;10286700;28;98716;-72
2022/03/01 06:30:06;;;;;;;11.80;7.00;;;;;;;-2.83;64.51;96963.53;10282397;28;97451;-71
2022/03/01 06:35:09;;;;;;;8.32;5.85;;;;;;;-2.85;64.21;96970.41;10286451;28;97082;-71
2022/03/01 06:40:20;;;;;;;11.73;5.88;;;;;;;-2.89;63.57;96967.13;10284280;28;97047;-71
2022/03/01 06:45:23;;;;;;;11.67;6.30;;;;;;;-2.92;63.59;96981.69;10289282;28;97200;-71
2022/03/01 06:50:26;;;;;;;12.50;6.40;;;;;;;-2.89;63.37;96987.56;10288517;28;97458;-71
2022/03/01 06:55:31;;;;;;;11.63;6.70;;;;;;;-2.85;63.30;96998.53;10285136;28;97117;-71
2022/03/01 07:00:34;;;;;;;10.23;6.53;;;;;;;-2.82;64.02;97003.53;10293337;28;96974;-71
2022/03/01 07:05:37;;;;;;;9.95;6.47;;;;;;;-2.71;63.30;97003.22;10263770;28;97283;-71
2022/03/01 07:10:42;;;;;;;9.30;5.93;;;;;;;-2.60;63.68;97004.53;10276512;28;97133;-71
2022/03/01 07:15:44;;;;;;;12.07;6.27;;;;;;;-2.60;63.86;97014.78;10281813;28;97288;-72
2022/03/01 07:20:48;;;;;;;12.95;7.25;;;;;;;-2.54;64.18;97023.16;10262763;28;97867;-71
2022/03/01 07:25:52;;;;;;;26.80;16.05;;;;;;;-2.33;63.13;97027.59;10281589;28;96910;-71
2022/03/01 07:30:55;;;;;;;14.05;8.75;;;;;;;-2.10;64.31;97028.56;10278389;28;97170;-71
2022/03/01 07:35:58;;;;;;;15.18;9.07;;;;;;;-1.93;63.53;97031.41;10268320;28;97050;-71
2022/03/01 07:41:02;;;;;;;22.85;13.25;;;;;;;-1.77;62.86;97036.00;10288270;28;97050;-71
2022/03/01 07:46:07;;;;;;;17.75;10.07;;;;;;;-1.62;62.76;97039.75;10286374;28;98675;-71
2022/03/01 07:51:10;;;;;;;18.57;11.83;;;;;;;-1.61;63.09;97036.31;10286433;28;97196;-71
2022/03/01 07:56:14;;;;;;;21.05;12.85;;;;;;;-1.63;62.76;97038.91;10287978;28;96945;-71
2022/03/01 08:01:17;;;;;;;23.43;14.30;;;;;;;-1.67;61.89;97038.19;10286619;28;97346;-72
2022/03/01 08:06:20;;;;;;;28.30;16.98;;;;;;;-1.68;61.98;97044.19;10269975;28;96838;-71
2022/03/01 08:11:24;;;;;;;24.02;15.32;;;;;;;-1.55;61.42;97036.06;10278659;28;97654;-71
2022/03/01 08:16:29;;;;;;;19.73;13.13;;;;;;;-1.50;61.80;97029.91;10282380;28;97677;-71
2022/03/01 08:21:32;;;;;;;20.38;11.77;;;;;;;-1.41;61.32;97035.59;10284275;28;97003;-71
2022/03/01 08:26:38;;;;;;;17.75;11.43;;;;;;;-1.23;62.06;97041.81;10284820;28;96943;-71
2022/03/01 08:31:42;;;;;;;17.52;11.88;;;;;;;-1.08;61.38;97036.94;10290132;28;97190;-72
2022/03/01 08:36:45;;;;;;;15.23;10.00;;;;;;;-0.98;61.02;97021.19;10286070;28;97500;-71
2022/03/01 08:41:53;;;;;;;17.58;10.05;;;;;;;-0.78;60.37;97026.41;10279932;28;97715;-72
2022/03/01 08:46:56;;;;;;;16.35;9.98;;;;;;;-0.54;61.16;97031.50;10275482;28;99223;-72
2022/03/01 08:51:59;;;;;;;17.27;10.45;;;;;;;-0.35;60.53;97021.34;10275688;28;98650;-72
2022/03/01 08:57:04;;;;;;;15.93;10.38;;;;;;;-0.23;60.12;97025.13;10288222;28;98226;-72
2022/03/01 09:02:07;;;;;;;18.63;10.43;;;;;;;-0.07;60.30;97021.06;10289151;28;98004;-72
2022/03/01 09:07:11;;;;;;;17.15;9.98;;;;;;;0.18;60.27;97020.03;10277281;28;97286;-72
2022/03/01 09:12:15;;;;;;;16.35;10.43;;;;;;;0.45;59.93;97017.19;10283702;28;101300;-72
2022/03/01 09:17:18;;;;;;;15.07;10.35;;;;;;;0.56;59.74;97025.25;10279131;28;98578;-72
2022/03/01 09:22:21;;;;;;;16.85;10.00;;;;;;;0.70;59.94;97028.06;10283962;28;98469;-72
2022/03/01 09:27:25;;;;;;;16.55;10.18;;;;;;;0.82;59.39;97023.28;10279298;28;98432;-72
2022/03/01 09:32:28;;;;;;;15.80;10.60;;;;;;;0.99;59.19;97023.34;10277218;28;100152;-72
2022/03/01 09:37:32;;;;;;;15.50;10.00;;;;;;;1.25;58.77;97023.91;10279482;28;104664;-72
2022/03/01 09:42:36;;;;;;;16.42;10.07;;;;;;;1.41;58.88;97014.53;10280268;28;96947;-71
2022/03/01 09:47:40;;;;;;;17.25;10.07;;;;;;;1.58;58.50;97021.47;10277708;28;96856;-72
2022/03/01 09:52:44;;;;;;;14.43;9.73;;;;;;;1.70;58.36;97025.22;10266319;28;98546;-72
2022/03/01 09:57:48;;;;;;;14.77;10.57;;;;;;;1.76;58.33;97019.75;10284627;28;99514;-72
2022/03/01 10:02:54;;;;;;;16.67;9.55;;;;;;;1.86;57.53;97010.66;10282063;28;97402;-72
2022/03/01 10:08:07;;;;;;;18.90;9.95;;;;;;;1.92;57.90;97012.09;10279696;28;99075;-72
2022/03/01 10:13:14;;;;;;;13.43;9.90;;;;;;;2.04;57.80;97010.66;10277521;28;97214;-72
2022/03/01 10:18:17;;;;;;;15.50;10.10;;;;;;;2.14;57.70;97009.31;10267977;28;98554;-72
2022/03/01 10:23:23;;;;;;;15.63;10.40;;;;;;;2.29;57.33;97008.53;10278829;28;97073;-72
2022/03/01 10:28:34;;;;;;;16.33;9.05;;;;;;;2.50;57.27;97018.66;10278953;28;98611;-72
2022/03/01 10:33:39;;;;;;;16.95;10.95;;;;;;;2.63;56.65;97006.81;10279915;28;97475;-73
2022/03/01 10:38:54;;;;;;;15.48;10.27;;;;;;;2.83;56.03;97002.34;10274314;28;97722;-73
2022/03/01 10:43:59;;;;;;;16.63;10.75;;;;;;;3.06;55.98;97009.69;10285122;28;97296;-72
2022/03/01 10:49:07;;;;;;;17.13;9.98;;;;;;;3.26;55.94;97006.03;10282158;28;98569;-72
2022/03/01 10:54:10;;;;;;;14.63;10.07;;;;;;;3.48;55.72;97014.34;10281965;28;98765;-72
2022/03/01 10:59:15;;;;;;;16.35;10.73;;;;;;;3.70;55.06;97001.91;10280796;28;97427;-72
2022/03/01 11:04:21;;;;;;;15.13;10.07;;;;;;;3.87;54.59;97011.28;10277432;28;100920;-73
2022/03/01 11:09:34;;;;;;;15.52;10.38;;;;;;;3.97;53.93;97007.25;10277313;28;97704;-72
2022/03/01 11:14:59;;;;;;;14.70;10.27;;;;;;;4.13;53.20;97007.19;10279475;28;98939;-72
2022/03/01 11:20:06;;;;;;;16.52;10.27;;;;;;;4.23;53.66;96996.31;10285100;28;99016;-72
2022/03/01 11:25:16;;;;;;;16.52;10.27;;;;;;;4.45;53.01;96995.88;10279970;28;97184;-72
2022/03/01 11:30:28;;;;;;;16.15;11.02;;;;;;;4.76;52.74;96989.69;10275631;28;96997;-73
2022/03/01 11:35:32;;;;;;;14.82;10.45;;;;;;;5.07;52.20;96982.63;10280994;28;97271;-72
2022/03/01 11:40:38;;;;;;;15.23;9.80;;;;;;;5.25;52.17;96970.28;10277859;28;97496;-72
2022/03/01 11:45:48;;;;;;;15.70;10.93;;;;;;;5.43;51.64;96973.50;10274219;28;97810;-72
2022/03/01 11:50:57;;;;;;;15.75;10.82;;;;;;;5.41;51.95;96970.13;10282210;28;98495;-72
2022/03/01 11:56:02;;;;;;;13.88;10.52;;;;;;;5.55;51.72;96962.34;10285179;28;98616;-72
2022/03/01 12:01:07;;;;;;;16.20;11.10;;;;;;;5.63;51.54;96954.88;10274167;28;98850;-72
2022/03/01 12:06:10;;;;;;;17.88;11.43;;;;;;;5.72;51.29;96950.84;10264874;28;98751;-72
2022/03/01 12:11:14;;;;;;;17.02;11.38;;;;;;;5.86;51.24;96944.75;10286142;28;98612;-72
2022/03/01 12:16:29;;;;;;;15.82;11.27;;;;;;;6.04;50.56;96942.72;10287141;28;96880;-72
2022/03/01 12:21:32;;;;;;;16.02;10.85;;;;;;;6.20;50.92;96938.16;10283612;28;97895;-72
2022/03/01 12:26:46;;;;;;;16.92;11.18;;;;;;;6.40;50.35;96933.38;10284930;28;98550;-73
2022/03/01 12:31:57;;;;;;;20.27;10.90;;;;;;;6.60;50.19;96938.03;10276518;28;97967;-73
2022/03/01 12:37:02;;;;;;;15.43;10.38;;;;;;;6.76;50.08;96940.38;10286872;28;97560;-73
2022/03/01 12:42:07;;;;;;;15.27;10.82;;;;;;;6.99;49.72;96930.22;10283553;28;98645;-72
2022/03/01 12:47:11;;;;;;;14.20;10.10;;;;;;;7.20;49.24;96917.47;10277440;28;96850;-72
2022/03/01 12:52:19;;;;;;;16.33;10.63;;;;;;;7.27;49.43;96915.22;10281947;28;97171;-72
2022/03/01 12:57:22;;;;;;;16.38;11.00;;;;;;;7.36;49.34;96911.97;10277633;28;97609;-72
2022/03/01 13:02:27;;;;;;;13.88;9.57;;;;;;;7.52;48.62;96914.28;10263650;28;96829;-72
2022/03/01 13:07:30;;;;;;;15.13;10.53;;;;;;;7.76;47.98;96896.06;10282985;28;96925;-72
2022/03/01 13:12:33;;;;;;;16.83;10.77;;;;;;;7.86;47.30;96883.19;10283317;28;97272;-72
2022/03/01 13:17:37;;;;;;;13.68;9.20;;;;;;;8.03;46.93;96889.72;10275236;28;97767;-72
2022/03/01 13:22:40;;;;;;;14.98;10.30;;;;;;;8.23;46.68;96888.22;10285958;28;100485;-72
2022/03/01 13:27:49;;;;;;;14.88;10.10;;;;;;;8.42;45.43;96882.44;10274159;28;97142;-72
2022/03/01 13:33:07;;;;;;;15.55;9.85;;;;;;;8.62;44.81;96873.91;10266160;28;104393;-72
2022/03/01 13:38:11;;;;;;;14.43;10.60;;;;;;;8.80;44.14;96876.00;10275611;28;97184;-72
2022/03/01 13:43:17;;;;;;;14.50;9.73;;;;;;;8.98;44.06;96869.31;10281157;28;96986;-72
2022/03/01 13:48:21;;;;;;;16.40;10.18;;;;;;;9.24;43.61;96861.19;10267902;28;97112;-72
2022/03/01 13:53:25;;;;;;;13.87;9.70;;;;;;;9.35;44.07;96868.97;10277590;28;97198;-72
2022/03/01 13:58:30;;;;;;;17.67;10.23;;;;;;;9.52;43.08;96858.97;10274135;28;97010;-72
2022/03/01 14:03:35;;;;;;;15.10;10.50;;;;;;;9.76;42.41;96856.13;10287588;28;98619;-72
2022/03/01 14:08:41;;;;;;;14.45;9.85;;;;;;;10.07;42.36;96849.16;10269366;28;101028;-72
2022/03/01 14:13:46;;;;;;;14.98;9.85;;;;;;;10.47;41.52;96837.09;10275374;28;98107;-72
2022/03/01 14:18:53;;;;;;;15.20;10.07;;;;;;;10.88;41.04;96838.72;10270801;28;97121;-72
2022/03/01 14:23:57;;;;;;;13.10;9.20;;;;;;;11.15;40.23;96829.41;10274908;28;96942;-72
2022/03/01 14:29:02;;;;;;;12.02;8.88;;;;;;;11.54;40.57;96830.25;10290674;28;98556;-73
2022/03/01 14:34:07;;;;;;;10.55;7.38;;;;;;;11.85;39.33;96831.84;10279059;28;97235;-72
2022/03/01 14:39:10;;;;;;;13.85;8.20;;;;;;;12.24;38.20;96837.00;10274209;28;97349;-72
2022/03/01 14:44:14;;;;;;;11.23;7.97;;;;;;;12.45;37.61;96834.16;10286904;28;97087;-72
2022/03/01 14:49:18;;;;;;;10.95;7.70;;;;;;;12.75;37.26;96825.19;10281578;28;97748;-72
2022/03/01 14:54:21;;;;;;;10.00;7.87;;;;;;;13.16;37.00;96816.94;10285481;28;97897;-72
2022/03/01 14:59:24;;;;;;;13.25;8.50;;;;;;;13.27;36.89;96805.38;10276072;28;97666;-72
2022/03/01 15:04:28;;;;;;;11.73;7.72;;;;;;;13.49;36.16;96815.41;10272171;28;97784;-74
2022/03/01 15:09:32;;;;;;;11.93;9.38;;;;;;;13.60;36.51;96809.94;10283354;28;98193;-72
2022/03/01 15:14:35;;;;;;;14.48;9.75;;;;;;;13.75;36.15;96812.81;10275327;28;98376;-72
2022/03/01 15:19:41;;;;;;;14.35;10.13;;;;;;;14.00;36.26;96811.19;10279813;28;96824;-73
2022/03/01 15:24:44;;;;;;;11.95;9.38;;;;;;;14.22;36.06;96813.44;10276744;28;97261;-72
2022/03/01 15:29:47;;;;;;;14.43;9.68;;;;;;;14.34;36.52;96813.03;10269886;28;104075;-72
2022/03/01 15:34:51;;;;;;;13.18;9.38;;;;;;;14.36;35.32;96799.72;10268493;28;97405;-72
2022/03/01 15:39:54;;;;;;;14.02;9.77;;;;;;;14.08;36.28;96793.81;10279338;28;99247;-73
2022/03/01 15:44:57;;;;;;;13.80;10.23;;;;;;;13.87;35.94;96795.00;10290700;28;98579;-73
2022/03/01 15:50:03;;;;;;;13.18;10.13;;;;;;;13.62;35.51;96792.22;10289370;28;96889;-73
2022/03/01 15:55:08;;;;;;;13.05;10.23;;;;;;;13.41;36.48;96796.97;10285913;28;97286;-73
2022/03/01 16:00:14;;;;;;;14.80;10.18;;;;;;;13.31;35.70;96783.94;10281983;28;96977;-73
2022/03/01 16:05:18;;;;;;;15.55;11.00;;;;;;;13.20;35.55;96782.38;10285625;28;97132;-73
2022/03/01 16:10:22;;;;;;;13.10;10.20;;;;;;;13.40;35.57;96774.34;10298324;28;97223;-72
2022/03/01 16:15:26;;;;;;;13.57;9.85;;;;;;;13.54;35.88;96779.03;10284661;28;97012;-73
2022/03/01 16:20:32;;;;;;;14.63;10.73;;;;;;;13.29;35.87;96770.16;10287417;28;96901;-72
2022/03/01 16:25:35;;;;;;;14.65;9.80;;;;;;;13.18;35.21;96763.31;10273559;28;97690;-72
2022/03/01 16:30:38;;;;;;;13.20;10.05;;;;;;;13.15;35.62;96765.44;10263945;28;98069;-73
2022/03/01 16:35:42;;;;;;;13.80;10.10;;;;;;;13.14;35.55;96762.00;10271326;28;98047;-70
2022/03/01 16:40:45;;;;;;;15.27;10.73;;;;;;;13.06;36.05;96761.91;10279748;28;96973;-72
2022/03/01 16:45:48;;;;;;;12.60;9.82;;;;;;;12.88;36.15;96752.22;10277601;28;98739;-72
2022/03/01 16:50:52;;;;;;;15.32;10.73;;;;;;;12.45;36.30;96761.59;10284808;28;98074;-73
2022/03/01 16:55:55;;;;;;;15.55;10.38;;;;;;;11.98;37.59;96759.06;10287131;28;97513;-72
2022/03/01 17:00:58;;;;;;;15.45;9.63;;;;;;;11.28;38.93;96756.72;10296341;28;97077;-73
2022/03/01 17:06:04;;;;;;;15.00;9.55;;;;;;;10.93;39.52;96758.13;10285884;28;96924;-72
2022/03/01 17:11:07;;;;;;;12.30;8.32;;;;;;;10.66;40.15;96760.56;10293266;28;97202;-72
2022/03/01 17:16:11;;;;;;;16.65;10.70;;;;;;;10.49;40.95;96755.03;10296833;28;98260;-73
2022/03/01 17:21:15;;;;;;;18.02;11.48;;;;;;;10.18;41.75;96757.72;10288973;28;97133;-73
2022/03/01 17:26:18;;;;;;;19.43;12.30;;;;;;;9.92;41.64;96766.94;10286248;28;96905;-73
2022/03/01 17:31:21;;;;;;;21.92;13.60;;;;;;;9.75;41.32;96760.53;10287816;28;98378;-73
2022/03/01 17:36:25;;;;;;;19.67;12.30;;;;;;;9.61;41.29;96767.75;10281773;28;98196;-73
2022/03/01 17:41:28;;;;;;;17.90;13.10;;;;;;;9.35;41.69;96763.84;10290480;28;98140;-73
2022/03/01 17:46:32;;;;;;;17.58;12.80;;;;;;;8.85;42.50;96773.06;10283946;28;97434;-73
2022/03/01 17:51:40;;;;;;;18.17;11.57;;;;;;;8.43;43.57;96777.31;10283572;28;96963;-73
2022/03/01 17:56:43;;;;;;;24.00;16.77;;;;;;;8.23;43.74;96777.13;10287551;28;97314;-73
2022/03/01 18:01:46;;;;;;;30.92;23.88;;;;;;;7.93;44.88;96777.72;10283211;28;97309;-73
2022/03/01 18:06:51;;;;;;;17.42;11.10;;;;;;;7.59;45.91;96773.31;10285731;28;96885;-73
2022/03/01 18:11:55;;;;;;;16.40;11.57;;;;;;;7.26;46.38;96776.66;10284969;28;97162;-72
2022/03/01 18:16:58;;;;;;;18.58;12.30;;;;;;;6.81;47.36;96777.28;10284892;28;98214;-73
2022/03/01 18:22:04;;;;;;;12.93;9.60;;;;;;;6.52;48.20;96781.16;10276386;28;97889;-73
2022/03/01 18:27:07;;;;;;;19.58;12.85;;;;;;;6.17;48.81;96781.88;10280479;28;97000;-74
2022/03/01 18:32:14;;;;;;;20.08;12.50;;;;;;;6.20;48.49;96779.91;10284463;28;96931;-73
2022/03/01 18:37:20;;;;;;;24.00;14.35;;;;;;;6.32;48.42;96786.00;10283026;28;97197;-73
2022/03/01 18:42:23;;;;;;;26.53;16.93;;;;;;;6.27;48.54;96775.09;10287390;28;96962;-74
2022/03/01 18:47:26;;;;;;;21.60;13.60;;;;;;;6.13;48.77;96777.84;10282125;28;99087;-74
2022/03/01 18:52:31;;;;;;;21.00;15.23;;;;;;;5.96;49.63;96785.03;10280955;28;101050;-73
2022/03/01 18:57:54;;;;;;;23.43;14.83;;;;;;;5.85;49.48;96782.34;10287465;28;96891;-73
2022/03/01 19:02:57;;;;;;;23.98;14.70;;;;;;;5.77;49.69;96775.06;10280104;28;96887;-73
2022/03/01 19:08:02;;;;;;;19.70;12.25;;;;;;;5.59;50.56;96782.34;10279105;28;96931;-74
2022/03/01 19:13:05;;;;;;;18.07;11.03;;;;;;;4.99;51.62;96777.72;10280081;28;97467;-73
2022/03/01 19:18:11;;;;;;;19.83;12.27;;;;;;;4.90;51.72;96781.72;10281762;28;97026;-73
2022/03/01 19:23:15;;;;;;;18.83;12.07;;;;;;;4.80;51.69;96775.47;10286120;28;97207;-73
2022/03/01 19:28:18;;;;;;;13.25;9.55;;;;;;;4.71;51.96;96771.72;10278364;28;97225;-74
2022/03/01 19:33:21;;;;;;;18.30;11.45;;;;;;;4.67;51.86;96767.69;10279463;28;98180;-73
2022/03/01 19:38:26;;;;;;;18.48;10.43;;;;;;;4.57;52.05;96770.84;10283785;28;97890;-73
2022/03/01 19:43:28;;;;;;;14.80;10.15;;;;;;;4.31;52.46;96775.06;10285051;28;96894;-73
2022/03/01 19:48:31;;;;;;;18.48;10.50;;;;;;;3.90;53.10;96773.31;10293471;28;97051;-73
2022/03/01 19:53:36;;;;;;;25.20;15.38;;;;;;;3.64;53.84;96775.72;10270463;28;97734;-73
2022/03/01 19:58:39;;;;;;;;;;;;;;;3.72;52.86;96782.97;10282492;28;97278;-73
2022/03/01 20:03:43;;;;;;;20.40;12.15;;;;;;;3.63;53.13;96784.38;10283064;28;96966;-73
2022/03/01 20:08:48;;;;;;;19.42;11.35;;;;;;;3.58;52.75;96788.16;10263964;28;96778;-73
2022/03/01 20:13:51;;;;;;;19.92;12.85;;;;;;;3.54;53.10;96776.34;10285441;28;97542;-73
2022/03/01 20:18:55;;;;;;;21.77;13.10;;;;;;;3.36;52.84;96789.44;10286530;28;96989;-73
2022/03/01 20:24:00;;;;;;;20.83;13.60;;;;;;;3.18;53.86;96777.59;10280780;28;98333;-73
2022/03/01 20:29:04;;;;;;;29.25;17.88;;;;;;;3.11;54.04;96791.75;10278171;28;98133;-73
2022/03/01 20:34:07;;;;;;;19.93;12.80;;;;;;;2.99;53.50;96806.19;10284592;28;98968;-73
2022/03/01 20:39:12;;;;;;;25.35;16.15;;;;;;;3.02;53.60;96796.53;10286759;28;97976;-74
2022/03/01 20:44:15;;;;;;;32.50;17.92;;;;;;;2.98;53.21;96789.03;10296074;28;100241;-73
2022/03/01 20:49:18;;;;;;;78.57;43.55;;;;;;;2.74;54.46;96788.69;10283421;28;96850;-74
2022/03/01 20:54:25;;;;;;;64.03;37.53;;;;;;;2.63;54.75;96782.38;10280634;28;97996;-74
2022/03/01 20:59:28;;;;;;;40.88;24.00;;;;;;;2.58;55.44;96788.69;10289273;28;96819;-74
2022/03/01 21:04:31;;;;;;;55.45;33.00;;;;;;;2.53;55.58;96783.81;10307184;28;97344;-74
2022/03/01 21:09:35;;;;;;;33.15;19.92;;;;;;;2.33;56.01;96777.16;10280557;28;97402;-74
2022/03/01 21:14:38;;;;;;;43.17;25.65;;;;;;;2.22;56.03;96779.50;10281349;28;98246;-74
2022/03/01 21:19:43;;;;;;;31.13;20.25;;;;;;;2.21;55.67;96782.97;10280939;28;97010;-74
2022/03/01 21:24:47;;;;;;;29.08;18.20;;;;;;;2.12;55.27;96789.47;10289265;28;97714;-74
2022/03/01 21:29:50;;;;;;;26.42;16.17;;;;;;;1.97;56.27;96780.78;10286445;28;96920;-74
2022/03/01 21:34:54;;;;;;;30.08;17.55;;;;;;;1.64;57.01;96770.53;10283202;28;97878;-74
2022/03/01 21:40:00;;;;;;;26.55;14.68;;;;;;;1.38;57.60;96772.69;10280477;28;97224;-74
2022/03/01 21:45:04;;;;;;;22.33;14.63;;;;;;;1.28;57.79;96766.34;10284805;28;98909;-74
2022/03/01 21:50:08;;;;;;;46.40;26.33;;;;;;;1.30;57.58;96764.53;10286743;28;98429;-74
2022/03/01 21:55:13;;;;;;;27.15;19.10;;;;;;;1.14;58.22;96770.47;10282350;28;100904;-73
2022/03/01 22:00:21;;;;;;;23.50;14.13;;;;;;;1.16;58.18;96773.78;10284689;28;100767;-73
2022/03/01 22:05:24;;;;;;;21.35;12.77;;;;;;;1.07;58.40;96779.41;10284262;28;100577;-74
2022/03/01 22:10:29;;;;;;;23.17;13.40;;;;;;;0.99;57.79;96774.63;10287923;28;96864;-74
2022/03/01 22:15:32;;;;;;;23.70;13.00;;;;;;;0.97;58.56;96773.03;10280032;28;98581;-74
2022/03/01 22:20:35;;;;;;;23.63;12.65;;;;;;;1.01;58.92;96779.69;10285787;28;97063;-74
2022/03/01 22:25:41;;;;;;;24.05;13.50;;;;;;;0.99;58.82;96791.81;10277900;28;97033;-74
2022/03/01 22:30:44;;;;;;;;;;;;;;;0.96;58.28;96787.63;10276697;28;97129;-74
2022/03/01 22:35:47;;;;;;;20.85;11.02;;;;;;;0.82;58.13;96778.94;10276542;28;98475;-74
2022/03/01 22:40:51;;;;;;;22.42;11.85;;;;;;;0.73;58.96;96781.03;10284975;28;97209;-74
2022/03/01 22:45:56;;;;;;;16.92;10.77;;;;;;;0.58;58.99;96781.75;10284766;28;97082;-73
2022/03/01 22:50:59;;;;;;;16.40;10.27;;;;;;;0.55;58.61;96774.19;10287974;28;98390;-74
2022/03/01 22:56:04;;;;;;;20.42;11.50;;;;;;;0.49;58.89;96779.63;10287431;28;96886;-74
2022/03/01 23:01:18;;;;;;;21.07;11.57;;;;;;;0.42;58.39;96779.91;10283464;28;97323;-74
2022/03/01 23:06:23;;;;;;;25.05;14.25;;;;;;;0.37;58.39;96768.19;10285188;28;96912;-74
2022/03/01 23:11:29;;;;;;;18.53;11.13;;;;;;;0.26;59.08;96773.03;10290009;28;97834;-73
2022/03/01 23:16:31;;;;;;;;;;;;;;;0.17;59.53;96771.72;10283585;28;98037;-74
2022/03/01 23:21:37;;;;;;;18.35;9.90;;;;;;;0.18;58.50;96768.22;10286933;28;97281;-73